Time;durP1;ratioP1;P1;durP2;ratioP2;P2;SDS_P1;SDS_P2;PMS_P1;PMS_P2;Temp;Humidity;BMP_temperature;BMP_pressure;BME280_temperature;BME280_humidity;BME280_pressure;Samples;Min_cycle;Max_cycle;Signal;HPM_P1;HPM_P2
2023/05/28 00:01:17;;;;;;;;;19.00;18.00;25.10;49.30;;;;;;111252;1239;49366;-63
2023/05/28 00:03:50;;;;;;;;;20.75;19.75;25.10;49.10;;;;;;111294;1240;49320;-62
2023/05/28 00:06:17;;;;;;;;;20.25;19.00;25.10;49.20;;;;;;111267;1240;53405;-62
2023/05/28 00:08:45;;;;;;;;;22.67;20.67;25.10;49.30;;;;;;111199;1243;44108;-62
2023/05/28 00:11:12;;;;;;;;;20.75;20.00;25.10;49.10;;;;;;111193;1244;48934;-61
2023/05/28 00:13:39;;;;;;;;;19.00;17.00;25.10;49.10;;;;;;111173;1243;49531;-61
2023/05/28 00:16:06;;;;;;;;;19.50;18.50;25.10;49.20;;;;;;111156;1238;54717;-61
2023/05/28 00:18:33;;;;;;;;;21.25;18.25;25.10;49.20;;;;;;111161;1243;44674;-62
2023/05/28 00:21:00;;;;;;;;;20.50;19.50;25.10;49.10;;;;;;111242;1243;49807;-62
2023/05/28 00:23:27;;;;;;;;;20.25;19.00;25.10;49.40;;;;;;111405;1238;48875;-61
2023/05/28 00:25:54;;;;;;;;;20.50;18.00;25.10;49.40;;;;;;111311;1243;54730;-61
2023/05/28 00:28:21;;;;;;;;;20.25;18.00;25.00;49.20;;;;;;111269;1243;44789;-62
2023/05/28 00:30:48;;;;;;;;;25.33;22.67;25.00;49.10;;;;;;111209;1243;49457;-63
2023/05/28 00:33:15;;;;;;;;;21.00;20.00;25.00;49.20;;;;;;111239;1244;49909;-63
2023/05/28 00:35:42;;;;;;;;;20.25;19.25;25.00;49.20;;;;;;111205;1240;54393;-64
2023/05/28 00:38:08;;;;;;;;;22.00;17.50;25.00;49.20;;;;;;111325;1243;45053;-63
2023/05/28 00:40:35;;;;;;;;;21.50;18.75;25.00;49.20;;;;;;111139;1243;48949;-63
2023/05/28 00:43:02;;;;;;;;;21.50;20.50;25.00;49.20;;;;;;111234;1240;49060;-63
2023/05/28 00:45:30;;;;;;;;;20.00;18.75;25.00;49.20;;;;;;111211;1238;54186;-63
2023/05/28 00:47:57;;;;;;;;;20.25;19.25;25.00;49.20;;;;;;111318;1239;45369;-63
2023/05/28 00:50:25;;;;;;;;;20.00;17.25;25.00;49.20;;;;;;111513;1238;49678;-63
2023/05/28 00:52:53;;;;;;;;;19.50;18.00;25.00;49.10;;;;;;111275;1243;49931;-63
2023/05/28 00:55:20;;;;;;;;;19.75;18.50;25.00;49.10;;;;;;111200;1238;53545;-63
2023/05/28 00:57:48;;;;;;;;;19.25;17.75;25.00;49.20;;;;;;111182;1240;45062;-62
2023/05/28 01:00:16;;;;;;;;;23.00;20.25;25.00;49.10;;;;;;111234;1243;50428;-62
2023/05/28 01:02:44;;;;;;;;;17.67;16.67;25.00;49.20;;;;;;111240;1243;49373;-63
2023/05/28 01:05:11;;;;;;;;;22.00;18.00;25.00;49.20;;;;;;111183;1243;53594;-63
2023/05/28 01:07:38;;;;;;;;;22.75;18.00;25.00;49.20;;;;;;111166;1238;45036;-63
2023/05/28 01:10:06;;;;;;;;;19.25;17.25;25.00;49.30;;;;;;111217;1238;49324;-63
2023/05/28 01:12:35;;;;;;;;;20.67;18.00;25.00;49.20;;;;;;111181;1243;49937;-63
2023/05/28 01:15:02;;;;;;;;;24.00;18.00;25.00;49.20;;;;;;111211;1240;53431;-63
2023/05/28 01:17:30;;;;;;;;;23.00;20.25;24.90;49.10;;;;;;111340;1241;45005;-64
2023/05/28 01:19:57;;;;;;;;;20.75;17.75;25.00;49.20;;;;;;111304;1243;49909;-63
2023/05/28 01:22:27;;;;;;;;;17.00;16.25;24.90;49.10;;;;;;111133;1244;49478;-64
2023/05/28 01:24:54;;;;;;;;;19.67;17.67;24.90;49.10;;;;;;111320;1243;54607;-64
2023/05/28 01:27:22;;;;;;;;;23.00;19.00;24.90;49.20;;;;;;111166;1240;44270;-64
2023/05/28 01:29:48;;;;;;;;;20.33;19.33;24.90;49.20;;;;;;111172;1238;49654;-64
2023/05/28 01:32:15;;;;;;;;;17.67;17.00;24.90;49.10;;;;;;111280;1243;49823;-63
2023/05/28 01:34:42;;;;;;;;;21.50;19.00;24.90;49.20;;;;;;111288;1239;53641;-62
2023/05/28 01:37:10;;;;;;;;;20.50;19.00;24.90;49.20;;;;;;111407;1243;44755;-63
2023/05/28 01:39:42;;;;;;;;;21.75;20.75;24.90;49.20;;;;;;111261;1242;49801;-63
2023/05/28 01:42:10;;;;;;;;;18.00;17.00;24.90;49.20;;;;;;111191;1241;50710;-62
2023/05/28 01:44:37;;;;;;;;;21.00;19.75;24.90;49.20;;;;;;111273;1241;53520;-63
2023/05/28 01:47:05;;;;;;;;;18.75;17.75;24.90;49.20;;;;;;111181;1238;44582;-63
2023/05/28 01:49:32;;;;;;;;;20.75;18.75;24.90;49.20;;;;;;111187;1240;50090;-62
2023/05/28 01:52:02;;;;;;;;;19.67;16.33;24.90;49.20;;;;;;111227;1244;50050;-64
2023/05/28 01:54:29;;;;;;;;;18.75;18.00;24.90;49.20;;;;;;111233;1243;53931;-61
2023/05/28 01:56:56;;;;;;;;;19.33;17.00;24.90;49.20;;;;;;111327;1242;44548;-62
2023/05/28 01:59:23;;;;;;;;;21.00;18.33;24.90;49.60;;;;;;111221;1240;48879;-62
2023/05/28 02:01:51;;;;;;;;;23.00;19.00;24.90;49.20;;;;;;111199;1243;49916;-62
2023/05/28 02:04:17;;;;;;;;;20.00;19.00;24.90;49.40;;;;;;111306;1243;54522;-63
2023/05/28 02:06:45;;;;;;;;;23.00;19.00;24.80;49.10;;;;;;111385;1238;45629;-63
2023/05/28 02:09:12;;;;;;;;;18.33;16.00;24.80;49.10;;;;;;111151;1239;49722;-63
2023/05/28 02:11:39;;;;;;;;;19.00;18.00;24.80;49.40;;;;;;111261;1238;49588;-64
2023/05/28 02:14:06;;;;;;;;;19.75;16.25;24.80;49.20;;;;;;111167;1240;53724;-63
2023/05/28 02:16:35;;;;;;;;;19.00;18.00;24.80;49.20;;;;;;111488;1243;45114;-64
2023/05/28 02:19:03;;;;;;;;;19.75;18.75;24.80;49.20;;;;;;111414;1244;49290;-63
2023/05/28 02:21:30;;;;;;;;;19.50;18.50;24.80;49.20;;;;;;111210;1240;49376;-64
2023/05/28 02:23:57;;;;;;;;;19.75;18.75;24.80;49.20;;;;;;111229;1239;54647;-63
2023/05/28 02:26:25;;;;;;;;;17.00;15.00;24.80;49.20;;;;;;111261;1244;45059;-62
2023/05/28 02:28:52;;;;;;;;;18.00;17.00;24.80;49.40;;;;;;111179;1244;50079;-65
2023/05/28 02:31:19;;;;;;;;;18.67;17.67;24.80;49.20;;;;;;111189;1243;49794;-62
2023/05/28 02:33:46;;;;;;;;;19.00;16.50;24.80;49.40;;;;;;111441;1243;54528;-63
2023/05/28 02:36:14;;;;;;;;;17.50;16.00;24.70;49.20;;;;;;111272;1243;44986;-63
2023/05/28 02:38:42;;;;;;;;;19.00;18.00;24.70;49.20;;;;;;111267;1243;49272;-63
2023/05/28 02:41:09;;;;;;;;;19.75;17.00;24.70;49.30;;;;;;111306;1239;48986;-64
2023/05/28 02:43:36;;;;;;;;;21.25;19.00;24.70;49.20;;;;;;111479;1243;54481;-62
2023/05/28 02:46:03;;;;;;;;;19.50;18.50;24.70;49.20;;;;;;111303;1240;44530;-63
2023/05/28 02:48:30;;;;;;;;;22.00;20.75;24.70;49.20;;;;;;111162;1243;49620;-63
2023/05/28 02:50:57;;;;;;;;;17.50;16.50;24.70;49.20;;;;;;111158;1240;49020;-62
2023/05/28 02:53:30;;;;;;;;;18.00;17.00;24.70;49.20;;;;;;111161;1240;54203;-62
2023/05/28 02:55:57;;;;;;;;;20.50;19.50;24.70;49.20;;;;;;111253;1240;44753;-62
2023/05/28 02:58:24;;;;;;;;;18.50;17.50;24.70;49.30;;;;;;111167;1243;49934;-62
2023/05/28 03:00:51;;;;;;;;;20.00;18.75;24.70;49.20;;;;;;111251;1239;49799;-62
2023/05/28 03:03:18;;;;;;;;;20.50;17.00;24.70;49.20;;;;;;111450;1243;53688;-62
2023/05/28 03:05:45;;;;;;;;;18.75;17.75;24.70;49.20;;;;;;111262;1238;44397;-62
2023/05/28 03:08:12;;;;;;;;;20.75;18.25;24.70;49.20;;;;;;111323;1239;49162;-62
2023/05/28 03:10:40;;;;;;;;;21.00;18.00;24.70;49.30;;;;;;111177;1240;49817;-62
2023/05/28 03:13:08;;;;;;;;;20.75;18.00;24.70;49.20;;;;;;111244;1243;55458;-61
2023/05/28 03:15:35;;;;;;;;;17.75;16.00;24.70;49.20;;;;;;111200;1239;44479;-61
2023/05/28 03:18:03;;;;;;;;;18.50;17.25;24.70;49.20;;;;;;111178;1238;49355;-61
2023/05/28 03:20:30;;;;;;;;;20.75;19.25;24.70;49.30;;;;;;111243;1238;49512;-61
2023/05/28 03:22:58;;;;;;;;;18.25;17.25;24.70;49.10;;;;;;111174;1243;55409;-61
2023/05/28 03:25:25;;;;;;;;;21.00;19.00;24.70;49.10;;;;;;111208;1239;46005;-61
2023/05/28 03:27:53;;;;;;;;;19.25;18.00;24.70;49.20;;;;;;111274;1243;49656;-62
2023/05/28 03:30:23;;;;;;;;;23.00;19.25;24.70;49.20;;;;;;111141;1243;49619;-62
2023/05/28 03:32:50;;;;;;;;;19.75;17.75;24.70;49.20;;;;;;111184;1243;54841;-61
2023/05/28 03:35:17;;;;;;;;;19.67;17.67;24.70;49.20;;;;;;111207;1238;44849;-61
2023/05/28 03:37:45;;;;;;;;;18.00;17.00;24.60;49.10;;;;;;111211;1238;50468;-61
2023/05/28 03:40:13;;;;;;;;;20.75;19.75;24.60;49.10;;;;;;111191;1238;49078;-61
2023/05/28 03:42:40;;;;;;;;;18.25;17.00;24.60;49.00;;;;;;111177;1240;54085;-61
2023/05/28 03:45:07;;;;;;;;;19.50;16.25;24.60;49.20;;;;;;111214;1240;44806;-61
2023/05/28 03:47:35;;;;;;;;;19.00;18.00;24.60;49.20;;;;;;111230;1243;49396;-62
2023/05/28 03:50:04;;;;;;;;;17.33;16.33;24.60;49.10;;;;;;111225;1243;49681;-61
2023/05/28 03:52:32;;;;;;;;;22.75;20.50;24.60;49.20;;;;;;111201;1243;53631;-62
2023/05/28 03:54:59;;;;;;;;;19.00;18.00;24.60;49.20;;;;;;111251;1243;44440;-61
2023/05/28 03:57:26;;;;;;;;;20.50;18.00;24.60;49.20;;;;;;111227;1243;49575;-62
2023/05/28 03:59:55;;;;;;;;;21.33;20.33;24.60;49.20;;;;;;111206;1245;49487;-62
2023/05/28 04:02:23;;;;;;;;;19.75;18.50;24.60;49.20;;;;;;111211;1243;54544;-60
2023/05/28 04:04:50;;;;;;;;;17.75;16.50;24.60;49.20;;;;;;111203;1243;45107;-60
2023/05/28 04:07:17;;;;;;;;;17.75;16.75;24.60;49.30;;;;;;111156;1238;50444;-61
2023/05/28 04:09:44;;;;;;;;;18.33;17.33;24.60;49.20;;;;;;111243;1243;49534;-61
2023/05/28 04:12:12;;;;;;;;;20.00;18.50;24.60;49.70;;;;;;111150;1243;54249;-61
2023/05/28 04:14:40;;;;;;;;;21.50;19.00;24.60;49.30;;;;;;111320;1243;44825;-61
2023/05/28 04:17:11;;;;;;;;;20.25;18.75;24.60;49.30;;;;;;111239;1241;49426;-62
2023/05/28 04:19:39;;;;;;;;;24.50;20.00;24.60;48.80;;;;;;111218;1238;49437;-62
2023/05/28 04:22:07;;;;;;;;;20.00;17.00;24.60;49.30;;;;;;111173;1239;53536;-62
2023/05/28 04:24:34;;;;;;;;;19.50;18.50;24.60;49.50;;;;;;111243;1240;44346;-62
2023/05/28 04:27:02;;;;;;;;;19.00;16.25;24.60;49.20;;;;;;111169;1240;50547;-62
2023/05/28 04:29:30;;;;;;;;;18.75;17.75;24.60;49.30;;;;;;111180;1240;49086;-62
2023/05/28 04:32:00;;;;;;;;;20.00;19.00;24.60;49.20;;;;;;111231;1243;53901;-62
2023/05/28 04:34:27;;;;;;;;;22.67;19.00;24.60;49.30;;;;;;111257;1244;45810;-62
2023/05/28 04:36:56;;;;;;;;;19.67;18.00;24.60;49.30;;;;;;111379;1243;48834;-62
2023/05/28 04:39:24;;;;;;;;;16.00;15.00;24.60;49.60;;;;;;111182;1243;49174;-63
2023/05/28 04:41:53;;;;;;;;;17.67;16.67;24.60;49.30;;;;;;111105;1244;53949;-62
2023/05/28 04:44:20;;;;;;;;;18.25;17.25;24.60;49.40;;;;;;111234;1240;44450;-61
2023/05/28 04:46:48;;;;;;;;;16.75;15.75;24.60;49.40;;;;;;111300;1243;49798;-61
2023/05/28 04:49:15;;;;;;;;;19.50;18.50;24.60;49.80;;;;;;111251;1243;50040;-62
2023/05/28 04:51:41;;;;;;;;;17.50;16.50;24.60;49.40;;;;;;111216;1243;53481;-62
2023/05/28 04:54:09;;;;;;;;;19.67;18.67;24.60;49.50;;;;;;111233;1240;44834;-62
2023/05/28 04:56:36;;;;;;;;;17.50;15.75;24.60;49.50;;;;;;111186;1243;49036;-62
2023/05/28 04:59:04;;;;;;;;;20.25;19.25;24.60;49.50;;;;;;111161;1241;50597;-62
2023/05/28 05:01:35;;;;;;;;;18.00;17.25;24.60;49.40;;;;;;111200;1243;54023;-62
2023/05/28 05:04:02;;;;;;;;;22.50;17.75;24.60;49.60;;;;;;111233;1244;45945;-63
2023/05/28 05:06:30;;;;;;;;;23.75;21.25;24.60;50.00;;;;;;111197;1239;49492;-66
2023/05/28 05:08:57;;;;;;;;;17.75;16.50;24.60;49.70;;;;;;111178;1238;50008;-62
2023/05/28 05:11:24;;;;;;;;;19.75;16.00;24.60;49.50;;;;;;111251;1238;53589;-61
2023/05/28 05:13:50;;;;;;;;;20.50;18.00;24.60;49.70;;;;;;111320;1244;44843;-62
2023/05/28 05:16:18;;;;;;;;;21.75;17.50;24.60;49.70;;;;;;111194;1240;49662;-62
2023/05/28 05:18:45;;;;;;;;;17.75;16.75;24.50;49.60;;;;;;111196;1244;50076;-65
2023/05/28 05:21:13;;;;;;;;;18.67;17.67;24.60;49.60;;;;;;111318;1238;53472;-64
2023/05/28 05:23:40;;;;;;;;;17.00;16.00;24.50;49.50;;;;;;111178;1241;44528;-64
2023/05/28 05:26:09;;;;;;;;;18.00;16.25;24.50;49.80;;;;;;111280;1243;49894;-65
2023/05/28 05:28:36;;;;;;;;;20.67;18.67;24.60;49.70;;;;;;111228;1243;49695;-65
2023/05/28 05:31:04;;;;;;;;;18.50;15.75;24.60;49.80;;;;;;111071;1242;54166;-65
2023/05/28 05:33:30;;;;;;;;;18.00;17.00;24.60;49.60;;;;;;112828;1243;44116;-64
2023/05/28 05:35:57;;;;;;;;;20.00;17.67;24.60;49.60;;;;;;111117;1244;49732;-63
2023/05/28 05:38:25;;;;;;;;;21.00;18.50;24.80;49.40;;;;;;111168;1238;49736;-61
2023/05/28 05:40:52;;;;;;;;;19.75;18.50;24.80;49.20;;;;;;111172;1243;53596;-61
2023/05/28 05:43:19;;;;;;;;;18.00;16.00;24.80;49.30;;;;;;111236;1243;45750;-61
2023/05/28 05:45:46;;;;;;;;;16.50;15.50;24.80;49.40;;;;;;111217;1239;50486;-61
2023/05/28 05:48:12;;;;;;;;;19.00;18.33;24.80;49.40;;;;;;111145;1243;50557;-62
2023/05/28 05:50:57;;;;;;;;;20.75;18.50;24.80;49.30;;;;;;111197;1244;54963;-62
2023/05/28 05:53:24;;;;;;;;;19.50;18.50;24.80;49.30;;;;;;111240;1244;45553;-61
2023/05/28 05:55:51;;;;;;;;;20.25;19.25;24.80;49.80;;;;;;111230;1238;49862;-61
2023/05/28 05:58:18;;;;;;;;;33.67;27.00;24.80;50.30;;;;;;111242;1243;49102;-61
2023/05/28 06:00:45;;;;;;;;;25.00;23.50;24.80;52.00;;;;;;111223;1244;53924;-61
2023/05/28 06:03:12;;;;;;;;;36.25;29.50;24.70;52.10;;;;;;111218;1240;44408;-63
2023/05/28 06:05:39;;;;;;;;;33.00;30.25;24.70;52.90;;;;;;111349;1238;50340;-64
2023/05/28 06:08:08;;;;;;;;;34.00;28.00;24.70;53.10;;;;;;111374;1243;49330;-61
2023/05/28 06:10:35;;;;;;;;;34.25;27.00;24.80;53.30;;;;;;111299;1244;54676;-62
2023/05/28 06:13:02;;;;;;;;;34.75;28.25;24.80;53.00;;;;;;111331;1239;45233;-60
2023/05/28 13:08:10;;;;;;;;;23.75;22.50;29.40;48.00;;;;;;107843;1279;34943;-66
2023/05/28 13:10:37;;;;;;;;;18.00;14.25;29.40;45.70;;;;;;110155;1255;48658;-76
2023/05/28 13:13:06;;;;;;;;;18.25;17.25;29.20;46.20;;;;;;110164;1251;54118;-75
2023/05/28 13:15:33;;;;;;;;;18.50;17.50;29.00;46.40;;;;;;110517;1253;44704;-77
2023/05/28 13:18:00;;;;;;;;;19.00;16.50;28.90;46.70;;;;;;110165;1251;50304;-75
2023/05/28 13:20:27;;;;;;;;;16.50;15.50;28.70;46.80;;;;;;110159;1257;50057;-75
2023/05/28 13:22:54;;;;;;;;;16.50;15.50;28.60;47.10;;;;;;109858;1249;653858;-76
2023/05/28 13:25:21;;;;;;;;;17.75;16.75;28.50;47.00;;;;;;110544;1251;45003;-71
2023/05/28 13:27:49;;;;;;;;;21.33;19.33;28.40;47.30;;;;;;110329;1254;49636;-74
2023/05/28 13:30:16;;;;;;;;;16.00;15.00;28.30;46.80;;;;;;110201;1251;49689;-72
2023/05/28 13:32:43;;;;;;;;;16.25;15.25;28.20;46.50;;;;;;110390;1254;54380;-77
2023/05/28 13:35:11;;;;;;;;;23.50;18.25;28.20;46.80;;;;;;110689;1250;45494;-73
2023/05/28 13:37:38;;;;;;;;;29.00;24.50;28.10;46.30;;;;;;110432;1254;49476;-74
2023/05/28 13:40:10;;;;;;;;;26.50;22.50;28.10;45.40;;;;;;110222;1251;49755;-75
2023/05/28 13:42:37;;;;;;;;;102.00;77.67;28.10;45.20;;;;;;110524;1250;54066;-75
2023/05/28 13:45:05;;;;;;;;;52.75;38.25;28.00;45.40;;;;;;110748;1253;44941;-70
2023/05/28 13:47:32;;;;;;;;;51.25;40.25;28.00;45.40;;;;;;110877;1247;49700;-70
2023/05/28 13:49:59;;;;;;;;;42.75;32.25;28.00;45.30;;;;;;110969;1247;49784;-74
2023/05/28 13:52:26;;;;;;;;;31.00;28.67;27.90;45.20;;;;;;110954;1243;53741;-74
2023/05/28 13:54:53;;;;;;;;;33.67;29.00;27.90;45.50;;;;;;111136;1244;44826;-75
2023/05/28 13:57:20;;;;;;;;;34.25;29.75;27.90;45.80;;;;;;111009;1243;50053;-75
2023/05/28 13:59:47;;;;;;;;;41.75;34.00;27.80;45.70;;;;;;110932;1243;49205;-76
2023/05/28 14:02:14;;;;;;;;;28.00;25.00;27.80;45.70;;;;;;111043;1243;53908;-73
2023/05/28 14:04:41;;;;;;;;;24.50;22.25;27.80;46.70;;;;;;111215;1244;45039;-75
2023/05/28 14:07:08;;;;;;;;;25.33;23.00;27.80;46.60;;;;;;110962;1243;49653;-74
2023/05/28 14:09:36;;;;;;;;;27.50;21.75;27.80;46.70;;;;;;110947;1248;49024;-73
2023/05/28 14:12:05;;;;;;;;;25.67;23.00;27.80;46.90;;;;;;110854;1243;53245;-73
2023/05/28 14:14:32;;;;;;;;;28.75;24.50;27.80;47.50;;;;;;111232;1248;45247;-75
2023/05/28 14:16:59;;;;;;;;;24.75;23.50;27.90;47.60;;;;;;110964;1244;49792;-76
2023/05/28 14:19:26;;;;;;;;;26.00;23.50;27.90;46.70;;;;;;111002;1244;49865;-72
2023/05/28 14:21:53;;;;;;;;;20.50;19.50;27.90;46.90;;;;;;110944;1243;53795;-73
2023/05/28 14:24:20;;;;;;;;;23.50;19.75;28.00;46.50;;;;;;111211;1245;44884;-72
2023/05/28 14:26:47;;;;;;;;;21.75;20.75;27.90;45.80;;;;;;110894;1247;49330;-69
2023/05/28 14:29:14;;;;;;;;;21.00;20.00;28.00;46.20;;;;;;110948;1244;49585;-69
2023/05/28 14:31:40;;;;;;;;;20.50;19.25;28.00;45.70;;;;;;110942;1244;54056;-76
2023/05/28 14:34:07;;;;;;;;;20.00;19.00;28.00;46.10;;;;;;111086;1243;44719;-69
2023/05/28 14:36:35;;;;;;;;;24.75;22.75;28.10;45.80;;;;;;111080;1247;50123;-68
2023/05/28 14:39:02;;;;;;;;;20.67;19.67;28.10;45.60;;;;;;111091;1247;50305;-72
2023/05/28 14:41:29;;;;;;;;;21.00;19.75;28.10;45.40;;;;;;111097;1243;54090;-73
2023/05/28 14:43:56;;;;;;;;;24.00;22.50;28.10;45.40;;;;;;110846;1244;44970;-76
2023/05/28 14:46:23;;;;;;;;;21.00;18.00;28.10;45.60;;;;;;111377;1247;48903;-76
2023/05/28 14:48:49;;;;;;;;;21.67;19.00;28.10;45.40;;;;;;111018;1244;49891;-71
2023/05/28 14:51:17;;;;;;;;;24.00;22.00;28.10;46.10;;;;;;111046;1248;54090;-75
2023/05/28 14:53:44;;;;;;;;;23.00;21.50;28.10;46.10;;;;;;111042;1247;44967;-75
2023/05/28 14:56:11;;;;;;;;;21.00;20.00;28.10;46.10;;;;;;111298;1245;49283;-74
2023/05/28 14:58:38;;;;;;;;;24.50;21.75;28.10;46.10;;;;;;111053;1247;49381;-71
2023/05/28 15:01:05;;;;;;;;;27.25;25.00;28.10;46.30;;;;;;111033;1244;54078;-72
2023/05/28 15:03:32;;;;;;;;;24.75;22.00;28.10;46.70;;;;;;111083;1243;44464;-76
2023/05/28 15:05:59;;;;;;;;;26.50;25.50;28.10;47.10;;;;;;111096;1244;49813;-73
2023/05/28 15:08:26;;;;;;;;;23.00;21.33;28.10;46.90;;;;;;110761;1248;49962;-73
2023/05/28 15:10:56;;;;;;;;;26.75;22.50;28.10;46.10;;;;;;110980;1247;53963;-73
2023/05/28 15:13:23;;;;;;;;;22.50;20.25;28.10;45.30;;;;;;111041;1247;45295;-73
2023/05/28 15:15:50;;;;;;;;;25.50;20.00;28.00;46.10;;;;;;111298;1243;49677;-77
2023/05/28 15:18:17;;;;;;;;;27.00;21.50;28.00;46.20;;;;;;110975;1244;49044;-77
2023/05/28 15:20:44;;;;;;;;;20.50;18.00;28.00;46.10;;;;;;110943;1245;54851;-76
2023/05/28 15:23:11;;;;;;;;;26.50;24.50;28.00;46.10;;;;;;111042;1243;44330;-75
2023/05/28 15:25:38;;;;;;;;;31.25;29.00;28.00;46.10;;;;;;111047;1247;49808;-80
2023/05/28 15:28:07;;;;;;;;;30.25;24.75;28.00;46.10;;;;;;111003;1246;49751;-80
2023/05/28 15:30:35;;;;;;;;;25.50;24.50;28.00;46.10;;;;;;111017;1243;53461;-80
2023/05/28 15:33:03;;;;;;;;;28.67;26.00;28.00;46.30;;;;;;111017;1246;45193;-80
2023/05/28 15:35:30;;;;;;;;;29.00;27.00;28.00;46.30;;;;;;111207;1244;49592;-67
2023/05/28 15:37:57;;;;;;;;;29.00;24.50;28.00;47.00;;;;;;110823;1243;49943;-71
2023/05/28 15:40:24;;;;;;;;;18.50;17.50;28.00;47.10;;;;;;110958;1244;54160;-73
2023/05/28 15:42:54;;;;;;;;;25.67;23.33;28.00;46.90;;;;;;110976;1244;45216;-76
2023/05/28 15:45:22;;;;;;;;;19.25;18.00;27.90;46.70;;;;;;111227;1243;49735;-76
2023/05/28 15:47:49;;;;;;;;;18.25;17.00;27.90;46.80;;;;;;110950;1243;49726;-73
2023/05/28 15:50:16;;;;;;;;;21.00;20.25;27.90;47.00;;;;;;110871;1249;54108;-74
2023/05/28 15:52:43;;;;;;;;;22.00;20.75;27.90;47.30;;;;;;110954;1245;44476;-76
2023/05/28 15:55:11;;;;;;;;;20.00;19.25;27.90;47.60;;;;;;111258;1243;49947;-74
2023/05/28 15:57:38;;;;;;;;;25.75;24.75;27.90;47.80;;;;;;111012;1243;49838;-71
2023/05/28 16:00:06;;;;;;;;;36.00;29.50;27.90;48.00;;;;;;110835;1243;53866;-76
2023/05/28 16:02:36;;;;;;;;;28.00;24.00;27.90;47.90;;;;;;110983;1247;45304;-74
2023/05/28 16:05:05;;;;;;;;;27.50;24.50;27.90;47.80;;;;;;111327;1244;50319;-75
2023/05/28 16:07:32;;;;;;;;;26.75;24.25;27.90;47.70;;;;;;111233;1244;50528;-74
2023/05/28 16:09:59;;;;;;;;;25.67;21.00;27.90;47.60;;;;;;110940;1247;53582;-74
2023/05/28 16:12:27;;;;;;;;;22.50;20.00;27.90;47.40;;;;;;111051;1244;44321;-75
2023/05/28 16:14:55;;;;;;;;;20.33;18.00;27.90;47.40;;;;;;111212;1247;50495;-76
2023/05/28 16:17:22;;;;;;;;;28.25;21.00;27.80;47.40;;;;;;110974;1244;49318;-75
2023/05/28 16:19:49;;;;;;;;;19.50;18.00;27.80;47.60;;;;;;110840;1247;54795;-74
2023/05/28 16:22:16;;;;;;;;;20.67;17.67;27.70;47.40;;;;;;110930;1246;45362;-74
2023/05/28 16:24:44;;;;;;;;;18.67;17.67;27.70;47.40;;;;;;111175;1247;49552;-74
2023/05/28 16:27:11;;;;;;;;;21.00;19.50;27.60;47.40;;;;;;110882;1248;49026;-74
2023/05/28 16:29:38;;;;;;;;;18.00;17.00;27.60;47.60;;;;;;110815;1246;53754;-73
2023/05/28 16:32:05;;;;;;;;;21.25;16.50;27.50;47.50;;;;;;110709;1249;46217;-74
2023/05/28 16:34:33;;;;;;;;;21.00;19.00;27.50;47.70;;;;;;111168;1247;50458;-74
2023/05/28 16:37:00;;;;;;;;;17.00;16.00;27.40;47.70;;;;;;110928;1244;49510;-74
2023/05/28 16:39:28;;;;;;;;;24.00;21.25;27.40;47.80;;;;;;110945;1245;53703;-73
2023/05/28 16:41:55;;;;;;;;;24.75;20.75;27.30;47.60;;;;;;110868;1247;45043;-75
2023/05/28 16:44:22;;;;;;;;;23.75;19.75;27.30;47.80;;;;;;111196;1247;48746;-75
2023/05/28 16:46:53;;;;;;;;;21.00;20.00;27.20;47.80;;;;;;110840;1243;49146;-75
2023/05/28 16:49:21;;;;;;;;;22.00;18.33;27.20;48.10;;;;;;110819;1244;53808;-75
2023/05/28 16:51:48;;;;;;;;;20.25;19.50;27.20;47.90;;;;;;110952;1244;45043;-75
2023/05/28 16:54:16;;;;;;;;;23.00;18.25;27.10;47.90;;;;;;111037;1248;49828;-74
2023/05/28 16:56:43;;;;;;;;;24.50;21.50;27.10;48.10;;;;;;110832;1244;50342;-75
2023/05/28 16:59:10;;;;;;;;;21.25;18.25;27.10;48.10;;;;;;110854;1248;54661;-75
2023/05/28 17:01:37;;;;;;;;;22.00;19.50;27.00;48.10;;;;;;110801;1248;44667;-74
2023/05/28 17:04:04;;;;;;;;;19.25;18.00;27.00;48.30;;;;;;110974;1247;49161;-73
2023/05/28 17:06:31;;;;;;;;;21.00;20.00;27.00;48.10;;;;;;111189;1247;49726;-74
2023/05/28 17:08:58;;;;;;;;;22.25;19.75;27.00;48.10;;;;;;111071;1244;54261;-75
2023/05/28 17:11:25;;;;;;;;;21.67;20.67;27.00;48.10;;;;;;111063;1247;44646;-74
2023/05/28 17:13:52;;;;;;;;;20.75;19.00;26.90;48.10;;;;;;111052;1244;49692;-75
2023/05/28 17:16:19;;;;;;;;;20.75;19.75;26.90;48.20;;;;;;111255;1244;49191;-75
2023/05/28 17:18:47;;;;;;;;;25.50;20.75;26.90;48.30;;;;;;111017;1243;53715;-76
2023/05/28 17:21:14;;;;;;;;;22.50;19.00;26.90;48.40;;;;;;111082;1247;45286;-75
2023/05/28 17:23:41;;;;;;;;;21.67;18.33;26.90;48.40;;;;;;111001;1245;50424;-74
2023/05/28 17:26:08;;;;;;;;;23.25;22.00;26.80;48.60;;;;;;111205;1243;49988;-74
2023/05/28 17:28:35;;;;;;;;;23.75;21.00;26.80;48.80;;;;;;110949;1244;53803;-74
2023/05/28 17:31:02;;;;;;;;;19.50;17.25;26.80;48.80;;;;;;111004;1247;45702;-74
2023/05/28 17:33:29;;;;;;;;;25.00;21.00;26.80;48.90;;;;;;110888;1243;49278;-74
2023/05/28 17:35:56;;;;;;;;;26.50;22.00;26.80;48.90;;;;;;111301;1247;49675;-74
2023/05/28 17:38:22;;;;;;;;;24.25;22.00;26.80;49.10;;;;;;110968;1243;53781;-74
2023/05/28 17:40:49;;;;;;;;;22.75;19.50;26.80;49.20;;;;;;110986;1247;44821;-74
2023/05/28 17:43:16;;;;;;;;;22.25;17.50;26.80;49.10;;;;;;110972;1244;49135;-75
2023/05/28 17:45:43;;;;;;;;;21.75;19.50;26.80;49.30;;;;;;111249;1244;49791;-75
2023/05/28 17:48:10;;;;;;;;;19.50;18.50;26.70;49.10;;;;;;110951;1247;53258;-75
2023/05/28 17:50:37;;;;;;;;;20.00;17.75;26.70;49.10;;;;;;110987;1243;44904;-75
2023/05/28 17:53:04;;;;;;;;;18.75;17.75;26.70;49.40;;;;;;110764;1245;49459;-73
2023/05/28 17:55:31;;;;;;;;;23.75;21.75;26.70;49.20;;;;;;111354;1244;49453;-74
2023/05/28 17:57:58;;;;;;;;;20.75;19.75;26.70;49.30;;;;;;110909;1247;54068;-74
2023/05/28 18:00:25;;;;;;;;;21.67;19.67;26.70;49.60;;;;;;110899;1247;44410;-75
2023/05/28 18:02:54;;;;;;;;;24.00;22.75;26.70;49.30;;;;;;110963;1244;50313;-71
2023/05/28 18:05:22;;;;;;;;;22.00;19.00;26.70;49.50;;;;;;111341;1243;49437;-74
2023/05/28 18:07:49;;;;;;;;;20.67;19.00;26.70;50.10;;;;;;110746;1249;53846;-72
2023/05/28 18:10:16;;;;;;;;;23.33;19.33;26.70;50.10;;;;;;110930;1243;44533;-72
2023/05/28 18:12:43;;;;;;;;;22.25;20.75;26.70;50.30;;;;;;111021;1245;50302;-73
2023/05/28 18:15:10;;;;;;;;;26.25;23.25;26.70;50.30;;;;;;111230;1246;49891;-70
2023/05/28 18:17:38;;;;;;;;;21.25;20.00;26.70;50.30;;;;;;111045;1247;54564;-69
2023/05/28 18:20:06;;;;;;;;;22.00;20.50;26.60;50.20;;;;;;110894;1244;45342;-69
2023/05/28 18:22:33;;;;;;;;;22.33;18.00;26.70;50.20;;;;;;111016;1243;49145;-69
2023/05/28 18:25:00;;;;;;;;;20.50;19.50;26.70;50.20;;;;;;110692;1244;49101;-69
2023/05/28 18:27:27;;;;;;;;;23.25;19.25;26.60;50.20;;;;;;110788;1247;54118;-69
2023/05/28 18:29:54;;;;;;;;;18.50;17.25;26.60;50.10;;;;;;111038;1247;45109;-69
2023/05/28 18:32:22;;;;;;;;;20.75;20.00;26.60;50.00;;;;;;110839;1244;49569;-72
2023/05/28 18:34:49;;;;;;;;;25.50;18.75;26.60;50.00;;;;;;111144;1244;50018;-68
2023/05/28 18:37:17;;;;;;;;;20.00;17.50;26.60;50.00;;;;;;111011;1246;54718;-67
2023/05/28 18:39:46;;;;;;;;;19.00;18.00;26.60;50.00;;;;;;110942;1243;44786;-70
2023/05/28 18:42:13;;;;;;;;;24.50;20.00;26.60;51.00;;;;;;110952;1243;50179;-74
2023/05/28 18:44:41;;;;;;;;;21.50;20.50;26.60;52.60;;;;;;111298;1247;49043;-71
2023/05/28 18:47:09;;;;;;;;;21.33;20.00;26.60;53.20;;;;;;111141;1244;53771;-70
2023/05/28 18:49:36;;;;;;;;;23.67;21.00;26.60;53.40;;;;;;111019;1244;44739;-71
2023/05/28 18:52:03;;;;;;;;;26.25;22.25;26.60;53.20;;;;;;111072;1242;48953;-70
2023/05/28 18:54:30;;;;;;;;;24.00;22.75;26.60;52.90;;;;;;111314;1247;48829;-70
2023/05/28 18:56:59;;;;;;;;;24.75;23.75;26.60;53.40;;;;;;111066;1245;54199;-70
2023/05/28 18:59:26;;;;;;;;;23.00;21.00;26.70;53.00;;;;;;111110;1246;44921;-69
2023/05/28 19:01:53;;;;;;;;;25.67;23.00;26.70;52.80;;;;;;111006;1248;50117;-68
2023/05/28 19:04:20;;;;;;;;;28.50;26.25;26.70;53.00;;;;;;111280;1248;50709;-69
2023/05/28 19:06:48;;;;;;;;;25.25;23.75;26.70;53.00;;;;;;111114;1244;53065;-69
2023/05/28 19:09:15;;;;;;;;;25.50;20.00;26.80;53.00;;;;;;111149;1243;45653;-70
2023/05/28 19:11:45;;;;;;;;;22.50;20.00;26.80;52.30;;;;;;111106;1242;50044;-73